Terminal Aerodrome Forecast
Issued by NWS Twin Cities, MN

Home | Current Version | Previous Version | Text Only | Print | Product List | Glossary On
Versions: 1 2 3 4 5 6 7 8 9 10 11 12 13 14 15 16 17 18
000
FTUS43 KMPX 242339
TAFSTC
TAF
KSTC 242339Z 2500/2524 22007KT P6SM VCTS SCT035CB BKN080
     FM250100 12003KT P6SM BKN200
     FM251500 13009KT 5SM -SHRA VCTS OVC050CB
     FM251900 13014G20KT P6SM -RA OVC040=

USA.gov is the U.S. government's official web portal to all federal, state and local government web resources and services.